Time;durP1;ratioP1;P1;durP2;ratioP2;P2;SDS_P1;SDS_P2;PMS_P1;PMS_P2;Temp;Humidity;BMP_temperature;BMP_pressure;BME280_temperature;BME280_humidity;BME280_pressure;Samples;Min_cycle;Max_cycle;Signal;HPM_P1;HPM_P2
2021/11/01 00:01:39;;;;;;;0.30;0.30;;;;;;;;;;5032920;28;20439;-65
2021/11/01 00:04:05;;;;;;;0.30;0.30;;;;;;;;;;5033137;28;20922;-65
2021/11/01 00:06:32;;;;;;;0.30;0.30;;;;;;;;;;5032079;28;20417;-65
2021/11/01 00:08:59;;;;;;;0.30;0.30;;;;;;;;;;5033194;28;20190;-65
2021/11/01 00:11:25;;;;;;;0.40;0.40;;;;;;;;;;5032474;28;20208;-65
2021/11/01 00:13:51;;;;;;;0.30;0.30;;;;;;;;;;5032950;28;20423;-65
2021/11/01 00:16:17;;;;;;;0.30;0.30;;;;;;;;;;5032949;28;20405;-65
2021/11/01 00:18:43;;;;;;;0.30;0.30;;;;;;;;;;5032722;28;20810;-65
2021/11/01 00:21:10;;;;;;;0.30;0.30;;;;;;;;;;5032573;28;20409;-65
2021/11/01 00:23:36;;;;;;;0.30;0.30;;;;;;;;;;5032591;28;20453;-65
2021/11/01 00:26:01;;;;;;;0.30;0.30;;;;;;;;;;5031527;28;20421;-65
2021/11/01 00:28:27;;;;;;;0.30;0.30;;;;;;;;;;5032685;28;20412;-65
2021/11/01 00:30:56;;;;;;;0.30;0.30;;;;;;;;;;5032328;28;20497;-65
2021/11/01 00:33:22;;;;;;;0.30;0.30;;;;;;;;;;5032373;28;20458;-65
2021/11/01 00:35:49;;;;;;;0.30;0.30;;;;;;;;;;5032895;28;20895;-65
2021/11/01 00:38:15;;;;;;;0.30;0.30;;;;;;;;;;5031245;28;20426;-65
2021/11/01 00:40:41;;;;;;;0.40;0.40;;;;;;;;;;5032277;28;20502;-65
2021/11/01 00:43:08;;;;;;;0.30;0.30;;;;;;;;;;5032315;28;20398;-65
2021/11/01 00:45:34;;;;;;;0.30;0.30;;;;;;;;;;5032428;28;20386;-65
2021/11/01 00:48:00;;;;;;;0.30;0.30;;;;;;;;;;5032223;28;20412;-65
2021/11/01 00:50:27;;;;;;;0.30;0.30;;;;;;;;;;5031517;28;20459;-65
2021/11/01 00:52:55;;;;;;;0.30;0.30;;;;;;;;;;5032236;28;20899;-65
2021/11/01 00:55:24;;;;;;;0.30;0.30;;;;;;;;;;5032423;28;20419;-65
2021/11/01 00:57:50;;;;;;;0.30;0.30;;;;;;;;;;5032162;28;20397;-65
2021/11/01 01:00:17;;;;;;;0.30;0.30;;;;;;;;;;5031980;28;20403;-65
2021/11/01 01:02:44;;;;;;;0.30;0.30;;;;;;;;;;5031957;28;20419;-65
2021/11/01 01:05:10;;;;;;;0.30;0.30;;;;;;;;;;5031983;28;20411;-65
2021/11/01 01:07:36;;;;;;;0.30;0.30;;;;;;;;;;5032064;28;20416;-65
2021/11/01 01:10:03;;;;;;;0.30;0.30;;;;;;;;;;5031765;28;20399;-64
2021/11/01 01:12:29;;;;;;;0.30;0.30;;;;;;;;;;5031714;28;20443;-65
2021/11/01 01:15:02;;;;;;;0.30;0.30;;;;;;;;;;5031996;28;20817;-65
2021/11/01 01:17:28;;;;;;;0.30;0.30;;;;;;;;;;5032063;28;20415;-65
2021/11/01 01:20:09;;;;;;;0.30;0.30;;;;;;;;;;5031741;28;20411;-65
2021/11/01 01:22:36;;;;;;;0.30;0.30;;;;;;;;;;5031841;28;20428;-64
2021/11/01 01:25:05;;;;;;;0.30;0.30;;;;;;;;;;5031697;28;20486;-64
2021/11/01 01:27:35;;;;;;;0.30;0.30;;;;;;;;;;5031664;28;20487;-64
2021/11/01 01:30:01;;;;;;;0.30;0.30;;;;;;;;;;5032080;28;20447;-64
2021/11/01 01:32:27;;;;;;;0.30;0.30;;;;;;;;;;5031253;28;20460;-64
2021/11/01 01:34:52;;;;;;;0.30;0.30;;;;;;;;;;5031610;28;20396;-64
2021/11/01 01:37:18;;;;;;;0.30;0.30;;;;;;;;;;5031607;28;20408;-64
2021/11/01 01:39:45;;;;;;;0.30;0.30;;;;;;;;;;5031691;28;20885;-64
2021/11/01 01:42:11;;;;;;;0.30;0.30;;;;;;;;;;5031485;28;20530;-64
2021/11/01 01:44:37;;;;;;;0.30;0.30;;;;;;;;;;5032242;28;20447;-64
2021/11/01 01:47:04;;;;;;;0.30;0.30;;;;;;;;;;5031634;28;20498;-65
2021/11/01 01:49:30;;;;;;;0.30;0.30;;;;;;;;;;5031499;28;20407;-65
2021/11/01 01:51:56;;;;;;;0.30;0.30;;;;;;;;;;5031129;28;20982;-65
2021/11/01 01:54:22;;;;;;;0.30;0.30;;;;;;;;;;5031422;28;20407;-65
2021/11/01 01:56:48;;;;;;;0.30;0.30;;;;;;;;;;5031438;28;20415;-64
2021/11/01 01:59:17;;;;;;;0.30;0.30;;;;;;;;;;5031361;28;20402;-65
2021/11/01 02:01:44;;;;;;;0.30;0.30;;;;;;;;;;5031027;28;20518;-64
2021/11/01 02:04:10;;;;;;;0.30;0.30;;;;;;;;;;5031421;28;20423;-64
2021/11/01 02:06:43;;;;;;;0.30;0.30;;;;;;;;;;5031387;28;20395;-64
2021/11/01 02:09:11;;;;;;;0.30;0.30;;;;;;;;;;5031474;28;20835;-64
2021/11/01 02:11:40;;;;;;;0.30;0.30;;;;;;;;;;5030852;28;20955;-65
2021/11/01 02:14:10;;;;;;;0.30;0.30;;;;;;;;;;5031183;28;20404;-64
2021/11/01 02:16:37;;;;;;;0.30;0.30;;;;;;;;;;5031477;28;20824;-64
2021/11/01 02:19:08;;;;;;;0.30;0.30;;;;;;;;;;5031227;28;20415;-65
2021/11/01 02:21:51;;;;;;;0.30;0.30;;;;;;;;;;5030905;28;20411;-64
2021/11/01 02:24:19;;;;;;;0.40;0.40;;;;;;;;;;5031084;28;20385;-65
2021/11/01 02:26:46;;;;;;;0.30;0.30;;;;;;;;;;5031155;28;20383;-64
2021/11/01 02:29:12;;;;;;;0.30;0.30;;;;;;;;;;5031056;28;20985;-64
2021/11/01 02:31:38;;;;;;;0.30;0.30;;;;;;;;;;5034320;28;20447;-64
2021/11/01 02:34:05;;;;;;;0.40;0.40;;;;;;;;;;5034754;28;20411;-64
2021/11/01 02:36:32;;;;;;;0.30;0.30;;;;;;;;;;5034782;28;20178;-64
2021/11/01 02:38:58;;;;;;;0.30;0.30;;;;;;;;;;5034682;28;20381;-64
2021/11/01 02:41:30;;;;;;;0.30;0.30;;;;;;;;;;5034342;28;20527;-64
2021/11/01 02:44:04;;;;;;;0.30;0.30;;;;;;;;;;5034640;28;20421;-65
2021/11/01 02:46:30;;;;;;;0.40;0.40;;;;;;;;;;5034617;28;20181;-64
2021/11/01 02:48:56;;;;;;;0.40;0.40;;;;;;;;;;5034439;28;20409;-64
2021/11/01 02:51:23;;;;;;;0.30;0.30;;;;;;;;;;5034184;28;20458;-64
2021/11/01 02:53:50;;;;;;;0.30;0.30;;;;;;;;;;5034486;28;20165;-64
2021/11/01 02:56:16;;;;;;;0.30;0.30;;;;;;;;;;5034717;28;20412;-64
2021/11/01 02:58:42;;;;;;;0.30;0.30;;;;;;;;;;5034343;28;20484;-64
2021/11/01 03:01:09;;;;;;;0.30;0.30;;;;;;;;;;5033632;28;20202;-64
2021/11/01 03:03:37;;;;;;;0.30;0.30;;;;;;;;;;5034349;28;20201;-64
2021/11/01 03:06:03;;;;;;;0.30;0.30;;;;;;;;;;5034306;28;20404;-65
2021/11/01 03:08:29;;;;;;;0.30;0.30;;;;;;;;;;5034198;28;20180;-64
2021/11/01 03:10:56;;;;;;;0.30;0.30;;;;;;;;;;5033691;28;20469;-64
2021/11/01 03:13:24;;;;;;;0.38;0.38;;;;;;;;;;5057916;22;20303;-65
2021/11/01 03:15:50;;;;;;;0.40;0.40;;;;;;;;;;5034144;28;20184;-65
2021/11/01 03:18:16;;;;;;;0.30;0.30;;;;;;;;;;5034075;28;20671;-65
2021/11/01 03:20:44;;;;;;;0.30;0.30;;;;;;;;;;5033834;28;20199;-66
2021/11/01 03:23:27;;;;;;;0.30;0.30;;;;;;;;;;5033899;28;20188;-65
2021/11/01 03:26:02;;;;;;;0.30;0.30;;;;;;;;;;5033969;28;20184;-67
2021/11/01 03:28:29;;;;;;;0.40;0.40;;;;;;;;;;5033920;28;20203;-67
2021/11/01 03:30:56;;;;;;;0.40;0.40;;;;;;;;;;5033544;28;20213;-68
2021/11/01 03:33:23;;;;;;;0.40;0.40;;;;;;;;;;5033755;28;20185;-67
2021/11/01 03:35:49;;;;;;;0.40;0.40;;;;;;;;;;5033737;28;20172;-67
2021/11/01 03:38:15;;;;;;;0.30;0.30;;;;;;;;;;5033670;28;20771;-67
2021/11/01 03:40:46;;;;;;;0.40;0.40;;;;;;;;;;5033235;28;20184;-66
2021/11/01 03:43:16;;;;;;;0.40;0.40;;;;;;;;;;5033473;28;20576;-67
2021/11/01 03:45:43;;;;;;;0.30;0.30;;;;;;;;;;5033626;28;20203;-66
2021/11/01 03:48:12;;;;;;;0.30;0.30;;;;;;;;;;5033579;28;20173;-66
2021/11/01 03:50:40;;;;;;;0.40;0.40;;;;;;;;;;5033135;28;20692;-67
2021/11/01 03:53:06;;;;;;;0.40;0.40;;;;;;;;;;5033375;28;20200;-67
2021/11/01 03:55:33;;;;;;;0.40;0.40;;;;;;;;;;5033456;28;20521;-67
2021/11/01 03:57:59;;;;;;;0.30;0.30;;;;;;;;;;5033397;28;20644;-66
2021/11/01 04:00:27;;;;;;;0.30;0.30;;;;;;;;;;5033123;28;20177;-67
2021/11/01 04:02:54;;;;;;;0.40;0.40;;;;;;;;;;5033231;28;20283;-66
2021/11/01 04:05:20;;;;;;;0.40;0.40;;;;;;;;;;5033177;28;20652;-67
2021/11/01 04:07:46;;;;;;;0.30;0.30;;;;;;;;;;5033104;28;20180;-67
2021/11/01 04:10:13;;;;;;;0.30;0.30;;;;;;;;;;5032803;28;20583;-66
2021/11/01 04:12:41;;;;;;;0.40;0.40;;;;;;;;;;5032941;28;20211;-67
2021/11/01 04:15:18;;;;;;;0.30;0.30;;;;;;;;;;5032990;28;20173;-67
2021/11/01 04:22:37;;;;;;;0.30;0.30;;;;;;;;;;5032754;28;20699;-67
2021/11/01 04:25:03;;;;;;;0.30;0.30;;;;;;;;;;5032852;28;20196;-67
2021/11/01 04:27:30;;;;;;;0.40;0.40;;;;;;;;;;5032794;28;20248;-67
2021/11/01 04:29:57;;;;;;;0.30;0.30;;;;;;;;;;5032761;28;20820;-66
2021/11/01 04:32:29;;;;;;;0.40;0.40;;;;;;;;;;5032324;28;20219;-66
2021/11/01 04:35:10;;;;;;;0.40;0.40;;;;;;;;;;5032702;28;20183;-67
2021/11/01 04:37:37;;;;;;;0.40;0.40;;;;;;;;;;5032578;28;20639;-66
2021/11/01 04:53:26;;;;;;;0.30;0.30;;;;;;;;;;5031748;28;20239;-67
2021/11/01 04:55:53;;;;;;;0.30;0.30;;;;;;;;;;5032250;28;20173;-67
2021/11/01 04:58:19;;;;;;;8.98;0.68;;;;;;;;;;5032154;28;20177;-66
2021/11/01 05:00:47;;;;;;;0.30;0.30;;;;;;;;;;5032037;28;20169;-67
2021/11/01 05:03:27;;;;;;;0.30;0.30;;;;;;;;;;5032236;28;20204;-67
2021/11/01 05:05:54;;;;;;;0.30;0.30;;;;;;;;;;5032198;28;20226;-66
2021/11/01 05:08:23;;;;;;;0.30;0.30;;;;;;;;;;5032069;28;20184;-67
2021/11/01 05:10:52;;;;;;;0.30;0.30;;;;;;;;;;5031596;28;20287;-66
2021/11/01 05:13:28;;;;;;;0.30;0.30;;;;;;;;;;5031800;28;20287;-67
2021/11/01 05:18:48;;;;;;;0.40;0.40;;;;;;;;;;5000910;28;20645;-66
2021/11/01 05:24:15;;;;;;;0.30;0.30;;;;;;;;;;5018686;28;20275;-66
2021/11/01 05:29:25;;;;;;;0.30;0.30;;;;;;;;;;5031654;28;20545;-66
2021/11/01 05:32:00;;;;;;;0.30;0.30;;;;;;;;;;5031607;28;20209;-66
2021/11/01 05:34:26;;;;;;;0.30;0.30;;;;;;;;;;5031686;28;20163;-66
2021/11/01 05:36:52;;;;;;;0.40;0.40;;;;;;;;;;5031568;28;20655;-67
2021/11/01 05:39:18;;;;;;;0.40;0.40;;;;;;;;;;5031327;28;20482;-66
2021/11/01 05:41:44;;;;;;;0.30;0.30;;;;;;;;;;5031407;28;20180;-66
2021/11/01 05:44:11;;;;;;;0.70;0.40;;;;;;;;;;5031058;28;20427;-66
2021/11/01 05:46:39;;;;;;;0.30;0.30;;;;;;;;;;5030977;28;20515;-65
2021/11/01 05:49:06;;;;;;;0.30;0.30;;;;;;;;;;5031352;28;20230;-65
2021/11/01 05:51:34;;;;;;;0.30;0.30;;;;;;;;;;5030898;28;20196;-66
2021/11/01 05:54:03;;;;;;;0.30;0.30;;;;;;;;;;5031488;28;20192;-66
2021/11/01 06:04:34;;;;;;;0.30;0.30;;;;;;;;;;5031745;28;20208;-65
2021/11/01 06:10:01;;;;;;;0.30;0.30;;;;;;;;;;5035477;28;20181;-66
2021/11/01 06:15:12;;;;;;;0.30;0.30;;;;;;;;;;5027164;28;20203;-65
2021/11/01 06:17:40;;;;;;;0.30;0.30;;;;;;;;;;5034930;28;20687;-65
2021/11/01 06:20:06;;;;;;;0.30;0.30;;;;;;;;;;5037138;28;20195;-65
2021/11/01 06:22:32;;;;;;;0.30;0.30;;;;;;;;;;5034593;28;20247;-66
2021/11/01 06:25:03;;;;;;;0.30;0.30;;;;;;;;;;5035127;28;20175;-66
2021/11/01 06:27:29;;;;;;;0.30;0.30;;;;;;;;;;5034799;28;20223;-66
2021/11/01 06:43:04;;;;;;;0.40;0.40;;;;;;;;;;5034663;28;20239;-65
2021/11/01 06:58:23;;;;;;;0.40;0.40;;;;;;;;;;5034521;28;20200;-66
2021/11/01 07:17:06;;;;;;;0.40;0.40;;;;;;;;;;5032872;28;20190;-67
2021/11/01 08:40:49;;;;;;;0.30;0.30;;;;;;;;;;5032600;28;20187;-65
2021/11/01 09:02:49;;;;;;;0.40;0.40;;;;;;;;;;5028532;28;20717;-65
2021/11/01 09:13:12;;;;;;;0.30;0.30;;;;;;;;;;5057476;22;20944;-65
2021/11/01 09:24:39;;;;;;;0.40;0.40;;;;;;;;;;5041261;28;20211;-65
2021/11/01 09:26:34;;;;;;;0.40;0.40;;;;;;;;;;5022829;28;20187;-65
2021/11/01 09:37:25;;;;;;;0.30;0.30;;;;;;;;;;5031623;28;20200;-65
2021/11/01 09:42:44;;;;;;;0.30;0.30;;;;;;;;;;5038561;28;20209;-65
2021/11/01 09:45:10;;;;;;;0.40;0.40;;;;;;;;;;5039880;28;20219;-65
2021/11/01 09:47:37;;;;;;;0.40;0.40;;;;;;;;;;5041292;28;20255;-64
2021/11/01 09:50:03;;;;;;;0.40;0.40;;;;;;;;;;5041111;28;20978;-64
2021/11/01 09:52:30;;;;;;;0.40;0.40;;;;;;;;;;5038718;28;20196;-65
2021/11/01 09:55:03;;;;;;;0.40;0.40;;;;;;;;;;5041248;28;20713;-65
2021/11/01 09:57:35;;;;;;;0.40;0.40;;;;;;;;;;5042120;28;20191;-65
2021/11/01 10:00:01;;;;;;;0.40;0.40;;;;;;;;;;5041582;28;20194;-65
2021/11/01 10:02:27;;;;;;;0.30;0.30;;;;;;;;;;5039234;28;20260;-65
2021/11/01 10:04:53;;;;;;;0.40;0.40;;;;;;;;;;5041701;28;20775;-64
2021/11/01 10:07:26;;;;;;;0.40;0.40;;;;;;;;;;5034273;28;20514;-65
2021/11/01 10:09:54;;;;;;;0.40;0.40;;;;;;;;;;5033138;28;20165;-64
2021/11/01 10:12:32;;;;;;;0.40;0.40;;;;;;;;;;5050344;28;20192;-65
2021/11/01 10:17:33;;;;;;;0.40;0.40;;;;;;;;;;5050962;28;20218;-65
2021/11/01 10:17:59;;;;;;;0.40;0.40;;;;;;;;;;5050615;28;20185;-64
2021/11/01 10:20:25;;;;;;;0.40;0.40;;;;;;;;;;5051635;28;20206;-64
2021/11/01 10:22:51;;;;;;;0.40;0.40;;;;;;;;;;5052064;28;20206;-65
2021/11/01 10:25:18;;;;;;;0.40;0.40;;;;;;;;;;5050936;28;20179;-68
2021/11/01 10:27:49;;;;;;;0.30;0.30;;;;;;;;;;5051265;28;20172;-64
2021/11/01 10:30:16;;;;;;;0.40;0.40;;;;;;;;;;5050430;28;20250;-65
2021/11/01 10:32:44;;;;;;;0.30;0.30;;;;;;;;;;5051075;28;20289;-63
2021/11/01 10:35:20;;;;;;;0.40;0.40;;;;;;;;;;5051364;28;20543;-65
2021/11/01 10:38:10;;;;;;;0.40;0.40;;;;;;;;;;5050611;28;20242;-65
2021/11/01 10:40:41;;;;;;;0.40;0.40;;;;;;;;;;5049438;28;20540;-65
2021/11/01 10:43:41;;;;;;;0.40;0.40;;;;;;;;;;5030349;28;20200;-65
2021/11/01 11:13:01;;;;;;;0.40;0.40;;;;;;;;;;5033729;28;20265;-62
2021/11/01 11:15:29;;;;;;;0.40;0.40;;;;;;;;;;5034253;28;20648;-65
2021/11/01 11:39:52;;;;;;;0.40;0.40;;;;;;;;;;5033851;28;20227;-63
2021/11/01 11:42:39;;;;;;;0.40;0.40;;;;;;;;;;5033177;28;20216;-63
2021/11/01 11:50:31;;;;;;;0.40;0.40;;;;;;;;;;5033311;28;20177;-65
2021/11/01 11:53:07;;;;;;;0.40;0.40;;;;;;;;;;5031699;28;20192;-63
2021/11/01 11:55:33;;;;;;;0.40;0.40;;;;;;;;;;5033568;28;20718;-63
2021/11/01 11:58:03;;;;;;;0.40;0.40;;;;;;;;;;5032266;28;20177;-63
2021/11/01 12:00:30;;;;;;;0.30;0.30;;;;;;;;;;5033583;28;20986;-63
2021/11/01 12:02:57;;;;;;;0.50;0.50;;;;;;;;;;5033188;28;20192;-63
2021/11/01 12:05:37;;;;;;;0.40;0.40;;;;;;;;;;5032836;28;20173;-63
2021/11/01 12:08:23;;;;;;;0.40;0.40;;;;;;;;;;5033641;28;20204;-63
2021/11/01 12:19:04;;;;;;;0.40;0.40;;;;;;;;;;5033490;28;20187;-63
2021/11/01 12:21:31;;;;;;;0.40;0.40;;;;;;;;;;5032876;28;20197;-63
2021/11/01 12:23:57;;;;;;;0.40;0.40;;;;;;;;;;5032882;28;20203;-63
2021/11/01 12:26:25;;;;;;;0.40;0.40;;;;;;;;;;5032285;28;20314;-63
2021/11/01 12:28:55;;;;;;;0.40;0.40;;;;;;;;;;5032551;28;20251;-63
2021/11/01 12:31:21;;;;;;;0.40;0.40;;;;;;;;;;5032409;28;20207;-63
2021/11/01 12:36:38;;;;;;;0.40;0.40;;;;;;;;;;5032691;28;20684;-63
2021/11/01 12:39:20;;;;;;;0.40;0.40;;;;;;;;;;5032213;28;20670;-63
2021/11/01 12:42:42;;;;;;;0.40;0.40;;;;;;;;;;5032334;28;20572;-62
2021/11/01 12:48:07;;;;;;;0.40;0.40;;;;;;;;;;5032691;28;20250;-63
2021/11/01 12:58:56;;;;;;;0.40;0.40;;;;;;;;;;5032220;28;20180;-65
2021/11/01 13:01:23;;;;;;;0.40;0.40;;;;;;;;;;5031549;28;20549;-62
2021/11/01 13:03:54;;;;;;;0.43;0.43;;;;;;;;;;5031820;28;20770;-65
2021/11/01 13:06:33;;;;;;;0.40;0.40;;;;;;;;;;5032032;28;20260;-65
2021/11/01 13:09:06;;;;;;;0.40;0.40;;;;;;;;;;5032189;28;20173;-62
2021/11/01 13:11:59;;;;;;;0.40;0.40;;;;;;;;;;5031202;28;20196;-64
2021/11/01 13:14:49;;;;;;;0.40;0.40;;;;;;;;;;5031370;28;20196;-65
2021/11/01 13:20:17;;;;;;;0.40;0.40;;;;;;;;;;5008243;28;20207;-65
2021/11/01 13:22:44;;;;;;;0.40;0.40;;;;;;;;;;5030940;28;20208;-64
2021/11/01 13:36:05;;;;;;;0.40;0.40;;;;;;;;;;5031712;28;20223;-63
2021/11/01 13:38:33;;;;;;;0.38;0.38;;;;;;;;;;5031908;28;20205;-63
2021/11/01 13:40:59;;;;;;;0.40;0.40;;;;;;;;;;5031342;28;20271;-63
2021/11/01 13:43:29;;;;;;;0.40;0.40;;;;;;;;;;5031479;28;20212;-65
2021/11/01 13:45:58;;;;;;;0.40;0.40;;;;;;;;;;5031522;28;20408;-64
2021/11/01 13:48:25;;;;;;;0.40;0.40;;;;;;;;;;5031507;28;20199;-64
2021/11/01 13:51:00;;;;;;;0.40;0.40;;;;;;;;;;5031221;28;20262;-65
2021/11/01 13:53:28;;;;;;;0.40;0.40;;;;;;;;;;5030116;28;20196;-64
2021/11/01 13:56:03;;;;;;;0.40;0.40;;;;;;;;;;5031463;28;20256;-65
2021/11/01 14:27:41;;;;;;;0.40;0.40;;;;;;;;;;5034700;28;20180;-63
2021/11/01 15:20:41;;;;;;;0.40;0.40;;;;;;;;;;5014209;28;20181;-65
2021/11/01 15:26:06;;;;;;;0.40;0.40;;;;;;;;;;5014156;28;20259;-65
2021/11/01 15:28:50;;;;;;;0.40;0.40;;;;;;;;;;5014516;28;20177;-65
2021/11/01 15:34:19;;;;;;;0.40;0.40;;;;;;;;;;5013921;28;20240;-65
2021/11/01 15:37:14;;;;;;;0.40;0.40;;;;;;;;;;5013796;28;20235;-65
2021/11/01 15:39:55;;;;;;;0.40;0.40;;;;;;;;;;5013851;28;20608;-65
2021/11/01 16:20:14;;;;;;;0.40;0.40;;;;;;;;;;5013307;28;20201;-65
2021/11/01 16:22:41;;;;;;;0.40;0.40;;;;;;;;;;5021744;28;20432;-65
2021/11/01 16:25:07;;;;;;;0.40;0.40;;;;;;;;;;5023127;28;21147;-65
2021/11/01 16:27:34;;;;;;;0.30;0.30;;;;;;;;;;5020531;28;20182;-65
2021/11/01 16:30:05;;;;;;;0.40;0.40;;;;;;;;;;5022954;28;20177;-65
2021/11/01 16:32:36;;;;;;;0.40;0.40;;;;;;;;;;5019422;28;20626;-65
2021/11/01 16:35:06;;;;;;;0.40;0.40;;;;;;;;;;5020212;28;20542;-65
2021/11/01 16:37:44;;;;;;;0.40;0.40;;;;;;;;;;5018357;28;20180;-64
2021/11/01 16:40:11;;;;;;;0.40;0.40;;;;;;;;;;5019202;28;20196;-65
2021/11/01 16:42:38;;;;;;;0.40;0.40;;;;;;;;;;5021844;28;20218;-64
2021/11/01 16:45:14;;;;;;;0.40;0.40;;;;;;;;;;5023388;28;20249;-65
2021/11/01 16:47:41;;;;;;;0.40;0.40;;;;;;;;;;5019779;28;20192;-64
2021/11/01 16:50:10;;;;;;;0.40;0.40;;;;;;;;;;5022604;28;20218;-64
2021/11/01 16:52:36;;;;;;;0.40;0.40;;;;;;;;;;5024323;28;20784;-65
2021/11/01 16:55:06;;;;;;;0.40;0.40;;;;;;;;;;5019007;28;20284;-65
2021/11/01 16:57:39;;;;;;;0.35;0.35;;;;;;;;;;5017961;28;20165;-64
2021/11/01 17:02:54;;;;;;;0.40;0.40;;;;;;;;;;5020054;28;20533;-64
2021/11/01 17:05:51;;;;;;;0.40;0.40;;;;;;;;;;5020044;28;20180;-65
2021/11/01 17:08:26;;;;;;;0.40;0.40;;;;;;;;;;5021496;28;20220;-64
2021/11/01 17:21:39;;;;;;;0.38;0.38;;;;;;;;;;5020474;28;20639;-64
2021/11/01 17:29:26;;;;;;;0.40;0.40;;;;;;;;;;5021845;28;20200;-64
2021/11/01 18:50:51;;;;;;;0.40;0.40;;;;;;;;;;5022290;28;20188;-64
2021/11/01 18:53:21;;;;;;;0.40;0.40;;;;;;;;;;5021443;28;20197;-64
2021/11/01 18:55:51;;;;;;;0.40;0.40;;;;;;;;;;5023609;28;20177;-64
2021/11/01 18:58:18;;;;;;;0.40;0.40;;;;;;;;;;5025145;28;20553;-64
2021/11/01 19:00:44;;;;;;;0.43;0.43;;;;;;;;;;5022420;28;20185;-64
2021/11/01 19:03:14;;;;;;;0.40;0.40;;;;;;;;;;5022477;28;20220;-64
2021/11/01 19:11:16;;;;;;;0.40;0.40;;;;;;;;;;5021766;28;20185;-66
2021/11/01 21:25:35;;;;;;;0.40;0.40;;;;;;;;;;5011700;28;20779;-65
2021/11/01 21:28:01;;;;;;;0.40;0.40;;;;;;;;;;5009927;28;20288;-65
2021/11/01 21:30:28;;;;;;;0.40;0.40;;;;;;;;;;5010318;28;20182;-65
2021/11/01 21:32:54;;;;;;;0.40;0.40;;;;;;;;;;5010585;28;20205;-65
2021/11/01 21:35:26;;;;;;;0.40;0.40;;;;;;;;;;5011856;28;20679;-65
2021/11/01 21:37:52;;;;;;;0.40;0.40;;;;;;;;;;5011582;28;20519;-65
2021/11/01 21:40:19;;;;;;;0.40;0.40;;;;;;;;;;5009728;28;20253;-64
2021/11/01 21:42:45;;;;;;;0.40;0.40;;;;;;;;;;5011544;28;20264;-65
2021/11/01 21:45:11;;;;;;;0.40;0.40;;;;;;;;;;5011673;28;20265;-64
2021/11/01 21:47:38;;;;;;;0.40;0.40;;;;;;;;;;5011360;28;20502;-65
2021/11/01 21:50:06;;;;;;;0.40;0.40;;;;;;;;;;5011290;28;20187;-64
2021/11/01 21:52:33;;;;;;;0.30;0.30;;;;;;;;;;5010654;28;20208;-65
2021/11/01 21:55:00;;;;;;;0.40;0.40;;;;;;;;;;5010161;28;20223;-65
2021/11/01 21:57:34;;;;;;;0.40;0.40;;;;;;;;;;5011637;28;20551;-64
2021/11/01 22:22:20;;;;;;;0.40;0.40;;;;;;;;;;4991805;28;20715;-65
2021/11/01 22:33:15;;;;;;;0.40;0.40;;;;;;;;;;5010378;28;20692;-64
2021/11/01 22:41:08;;;;;;;0.40;0.40;;;;;;;;;;5010843;28;20645;-65
2021/11/01 22:46:21;;;;;;;0.40;0.40;;;;;;;;;;5010576;28;20309;-65
2021/11/01 22:57:08;;;;;;;0.40;0.40;;;;;;;;;;5010934;28;20197;-64
2021/11/01 22:59:34;;;;;;;0.40;0.40;;;;;;;;;;5013695;28;20677;-65
2021/11/01 23:02:01;;;;;;;0.40;0.40;;;;;;;;;;5013908;28;20653;-65
2021/11/01 23:04:51;;;;;;;0.40;0.40;;;;;;;;;;5014390;28;20239;-65
2021/11/01 23:32:05;;;;;;;0.40;0.40;;;;;;;;;;4993012;28;20267;-65
2021/11/01 23:34:31;;;;;;;0.40;0.40;;;;;;;;;;4994575;28;20183;-65
2021/11/01 23:36:57;;;;;;;0.50;0.50;;;;;;;;;;4994020;28;20221;-64
2021/11/01 23:39:23;;;;;;;0.40;0.40;;;;;;;;;;4993315;28;20466;-65
2021/11/01 23:41:49;;;;;;;0.40;0.40;;;;;;;;;;4994196;28;20889;-65
2021/11/01 23:44:16;;;;;;;0.50;0.50;;;;;;;;;;4994361;28;20189;-64
2021/11/01 23:46:42;;;;;;;0.40;0.40;;;;;;;;;;4994358;28;20182;-65
2021/11/01 23:49:09;;;;;;;0.40;0.40;;;;;;;;;;4994209;28;20237;-65
2021/11/01 23:51:36;;;;;;;0.47;0.47;;;;;;;;;;4993965;28;20574;-64
2021/11/01 23:56:47;;;;;;;0.50;0.50;;;;;;;;;;4994288;28;20185;-65
2021/11/01 23:59:13;;;;;;;0.40;0.40;;;;;;;;;;4993919;28;20284;-65
